sensor_id;sensor_type;location;lat;lon;timestamp;pressure;altitude;pressure_sealevel;temperature;humidity
69842;BME280;57138;51.326;-0.068;2023-03-26T00:01:13;98565.13;;;7.83;89.47
69842;BME280;57138;51.326;-0.068;2023-03-26T00:03:40;98562.03;;;7.86;89.79
69842;BME280;57138;51.326;-0.068;2023-03-26T00:06:07;98564.47;;;7.88;89.72
69842;BME280;57138;51.326;-0.068;2023-03-26T00:08:34;98553.25;;;7.86;89.66
69842;BME280;57138;51.326;-0.068;2023-03-26T00:11:00;98538.09;;;7.86;90.25
69842;BME280;57138;51.326;-0.068;2023-03-26T00:13:26;98533.81;;;7.85;90.29
69842;BME280;57138;51.326;-0.068;2023-03-26T00:15:52;98527.44;;;7.86;90.50
69842;BME280;57138;51.326;-0.068;2023-03-26T00:18:18;98522.75;;;7.88;89.98
69842;BME280;57138;51.326;-0.068;2023-03-26T00:20:49;98515.78;;;7.87;90.47
69842;BME280;57138;51.326;-0.068;2023-03-26T00:23:15;98508.00;;;7.86;89.93
69842;BME280;57138;51.326;-0.068;2023-03-26T00:25:40;98506.16;;;7.86;89.85
69842;BME280;57138;51.326;-0.068;2023-03-26T00:28:08;98504.31;;;7.87;89.97
69842;BME280;57138;51.326;-0.068;2023-03-26T00:30:34;98504.31;;;7.87;90.12
69842;BME280;57138;51.326;-0.068;2023-03-26T00:33:06;98496.97;;;7.82;90.02
69842;BME280;57138;51.326;-0.068;2023-03-26T00:35:34;98488.81;;;7.77;90.09
69842;BME280;57138;51.326;-0.068;2023-03-26T00:38:01;98485.34;;;7.77;90.38
69842;BME280;57138;51.326;-0.068;2023-03-26T00:40:26;98481.47;;;7.72;90.35
69842;BME280;57138;51.326;-0.068;2023-03-26T00:42:52;98481.44;;;7.79;90.31
69842;BME280;57138;51.326;-0.068;2023-03-26T00:45:17;98469.59;;;7.75;90.84
69842;BME280;57138;51.326;-0.068;2023-03-26T00:47:45;98465.91;;;7.76;90.14
69842;BME280;57138;51.326;-0.068;2023-03-26T00:50:10;98467.50;;;7.77;90.99
69842;BME280;57138;51.326;-0.068;2023-03-26T00:52:41;98464.25;;;7.75;90.53
69842;BME280;57138;51.326;-0.068;2023-03-26T00:55:07;98464.25;;;7.75;89.78
69842;BME280;57138;51.326;-0.068;2023-03-26T00:57:33;98455.69;;;7.73;90.56
69842;BME280;57138;51.326;-0.068;2023-03-26T00:59:58;98453.41;;;7.77;90.26
69842;BME280;57138;51.326;-0.068;2023-03-26T01:02:24;98438.47;;;7.76;90.14
69842;BME280;57138;51.326;-0.068;2023-03-26T01:04:55;98444.19;;;7.79;89.72
69842;BME280;57138;51.326;-0.068;2023-03-26T01:07:24;98435.38;;;7.79;89.21
69842;BME280;57138;51.326;-0.068;2023-03-26T01:09:55;98433.56;;;7.79;89.55
69842;BME280;57138;51.326;-0.068;2023-03-26T01:12:24;98437.66;;;7.75;89.03
69842;BME280;57138;51.326;-0.068;2023-03-26T01:14:52;98427.81;;;7.76;89.23
69842;BME280;57138;51.326;-0.068;2023-03-26T01:17:18;98416.38;;;7.75;89.44
69842;BME280;57138;51.326;-0.068;2023-03-26T01:22:16;98411.44;;;7.79;89.09
69842;BME280;57138;51.326;-0.068;2023-03-26T01:24:42;98411.44;;;7.79;88.96
69842;BME280;57138;51.326;-0.068;2023-03-26T01:33:02;98394.50;;;7.73;88.95
69842;BME280;57138;51.326;-0.068;2023-03-26T01:41:06;98383.66;;;7.74;89.53
69842;BME280;57138;51.326;-0.068;2023-03-26T01:46:06;98374.84;;;7.74;89.64
69842;BME280;57138;51.326;-0.068;2023-03-26T01:48:44;98369.28;;;7.76;89.80
69842;BME280;57138;51.326;-0.068;2023-03-26T01:51:11;98368.50;;;7.75;89.80
69842;BME280;57138;51.326;-0.068;2023-03-26T01:53:43;98366.22;;;7.79;90.15
69842;BME280;57138;51.326;-0.068;2023-03-26T01:56:15;98370.28;;;7.81;90.03
69842;BME280;57138;51.326;-0.068;2023-03-26T02:01:54;98355.78;;;7.77;90.85
69842;BME280;57138;51.326;-0.068;2023-03-26T02:04:25;98366.41;;;7.77;91.46
69842;BME280;57138;51.326;-0.068;2023-03-26T02:07:12;98353.38;;;7.69;90.70
69842;BME280;57138;51.326;-0.068;2023-03-26T02:09:46;98348.34;;;7.61;90.31
69842;BME280;57138;51.326;-0.068;2023-03-26T02:12:15;98340.44;;;7.47;90.68
69842;BME280;57138;51.326;-0.068;2023-03-26T02:14:41;98336.75;;;7.48;91.15
69842;BME280;57138;51.326;-0.068;2023-03-26T02:17:07;98342.50;;;7.45;91.54
69842;BME280;57138;51.326;-0.068;2023-03-26T02:19:35;98334.34;;;7.40;91.99
69842;BME280;57138;51.326;-0.068;2023-03-26T02:22:01;98334.34;;;7.40;92.36
69842;BME280;57138;51.326;-0.068;2023-03-26T02:24:27;98326.56;;;7.38;92.75
69842;BME280;57138;51.326;-0.068;2023-03-26T02:26:52;98322.09;;;7.39;93.15
69842;BME280;57138;51.326;-0.068;2023-03-26T02:29:17;98321.25;;;7.38;93.16
69842;BME280;57138;51.326;-0.068;2023-03-26T02:31:45;98313.28;;;7.38;93.02
69842;BME280;57138;51.326;-0.068;2023-03-26T02:34:12;98300.81;;;7.39;93.40
69842;BME280;57138;51.326;-0.068;2023-03-26T02:36:38;98298.59;;;7.36;93.45
69842;BME280;57138;51.326;-0.068;2023-03-26T02:39:08;98295.06;;;7.42;93.50
69842;BME280;57138;51.326;-0.068;2023-03-26T02:41:33;98293.06;;;7.37;93.91
69842;BME280;57138;51.326;-0.068;2023-03-26T02:43:58;98291.22;;;7.38;94.11
69842;BME280;57138;51.326;-0.068;2023-03-26T02:46:24;98288.97;;;7.35;94.24
69842;BME280;57138;51.326;-0.068;2023-03-26T02:48:49;98270.78;;;7.32;94.26
69842;BME280;57138;51.326;-0.068;2023-03-26T02:51:15;98276.72;;;7.34;94.19
69842;BME280;57138;51.326;-0.068;2023-03-26T02:53:42;98258.00;;;7.22;95.02
69842;BME280;57138;51.326;-0.068;2023-03-26T02:56:08;98275.09;;;7.33;94.92
69842;BME280;57138;51.326;-0.068;2023-03-26T02:58:33;98274.50;;;7.31;95.29
69842;BME280;57138;51.326;-0.068;2023-03-26T03:00:59;98266.53;;;7.31;95.46
69842;BME280;57138;51.326;-0.068;2023-03-26T03:03:27;98273.25;;;7.33;95.12
69842;BME280;57138;51.326;-0.068;2023-03-26T03:05:54;98262.22;;;7.30;95.35
69842;BME280;57138;51.326;-0.068;2023-03-26T03:08:21;98268.97;;;7.32;95.39
69842;BME280;57138;51.326;-0.068;2023-03-26T03:10:59;98258.56;;;7.31;95.76
69842;BME280;57138;51.326;-0.068;2023-03-26T03:13:25;98260.81;;;7.27;95.51
69842;BME280;57138;51.326;-0.068;2023-03-26T03:15:51;98264.09;;;7.29;95.31
69842;BME280;57138;51.326;-0.068;2023-03-26T03:18:16;98251.44;;;7.25;95.60
69842;BME280;57138;51.326;-0.068;2023-03-26T03:20:42;98256.75;;;7.25;95.88
69842;BME280;57138;51.326;-0.068;2023-03-26T03:23:08;98246.38;;;7.16;95.53
69842;BME280;57138;51.326;-0.068;2023-03-26T03:25:34;98242.53;;;7.12;95.38
69842;BME280;57138;51.326;-0.068;2023-03-26T03:27:59;98249.44;;;7.13;95.28
69842;BME280;57138;51.326;-0.068;2023-03-26T03:30:25;98247.22;;;7.10;95.68
69842;BME280;57138;51.326;-0.068;2023-03-26T03:32:50;98245.00;;;7.07;95.12
69842;BME280;57138;51.326;-0.068;2023-03-26T03:35:16;98240.09;;;7.04;95.57
69842;BME280;57138;51.326;-0.068;2023-03-26T03:37:41;98240.94;;;7.05;96.00
69842;BME280;57138;51.326;-0.068;2023-03-26T03:40:08;98230.75;;;6.95;93.58
69842;BME280;57138;51.326;-0.068;2023-03-26T03:42:35;98236.06;;;6.95;93.33
69842;BME280;57138;51.326;-0.068;2023-03-26T03:45:02;98233.25;;;6.90;93.00
69842;BME280;57138;51.326;-0.068;2023-03-26T03:47:27;98233.09;;;6.84;93.43
69842;BME280;57138;51.326;-0.068;2023-03-26T03:49:53;98236.16;;;6.81;92.45
69842;BME280;57138;51.326;-0.068;2023-03-26T03:52:18;98237.00;;;6.75;93.09
69842;BME280;57138;51.326;-0.068;2023-03-26T03:54:43;98224.00;;;6.67;93.83
69842;BME280;57138;51.326;-0.068;2023-03-26T03:57:09;98222.78;;;6.63;93.97
69842;BME280;57138;51.326;-0.068;2023-03-26T03:59:34;98219.53;;;6.61;94.02
69842;BME280;57138;51.326;-0.068;2023-03-26T04:01:59;98222.78;;;6.63;94.76
69842;BME280;57138;51.326;-0.068;2023-03-26T04:04:25;98226.44;;;6.62;94.92
69842;BME280;57138;51.326;-0.068;2023-03-26T04:06:50;98217.88;;;6.60;94.66
69842;BME280;57138;51.326;-0.068;2023-03-26T04:09:17;98227.66;;;6.66;94.78
69842;BME280;57138;51.326;-0.068;2023-03-26T04:11:42;98226.03;;;6.65;94.72
69842;BME280;57138;51.326;-0.068;2023-03-26T04:14:07;98226.44;;;6.62;95.29
69842;BME280;57138;51.326;-0.068;2023-03-26T04:16:34;98223.19;;;6.60;95.05
69842;BME280;57138;51.326;-0.068;2023-03-26T04:18:59;98216.66;;;6.56;95.56
69842;BME280;57138;51.326;-0.068;2023-03-26T04:21:27;98229.72;;;6.57;95.50
69842;BME280;57138;51.326;-0.068;2023-03-26T04:23:55;98222.81;;;6.56;95.53
69842;BME280;57138;51.326;-0.068;2023-03-26T04:26:20;98220.78;;;6.52;95.92
69842;BME280;57138;51.326;-0.068;2023-03-26T04:29:05;98219.75;;;6.53;96.01
69842;BME280;57138;51.326;-0.068;2023-03-26T04:31:36;98215.69;;;6.50;95.27
69842;BME280;57138;51.326;-0.068;2023-03-26T04:34:14;98208.97;;;6.47;95.83
69842;BME280;57138;51.326;-0.068;2023-03-26T04:36:44;98211.03;;;6.45;95.54
69842;BME280;57138;51.326;-0.068;2023-03-26T04:39:11;98215.72;;;6.43;95.86
69842;BME280;57138;51.326;-0.068;2023-03-26T04:41:37;98214.25;;;6.47;95.99
69842;BME280;57138;51.326;-0.068;2023-03-26T04:44:03;98211.81;;;6.46;95.84
69842;BME280;57138;51.326;-0.068;2023-03-26T04:46:28;98205.72;;;6.45;95.81
69842;BME280;57138;51.326;-0.068;2023-03-26T04:48:58;98202.44;;;6.43;95.37
69842;BME280;57138;51.326;-0.068;2023-03-26T04:51:26;98208.56;;;6.44;95.56
69842;BME280;57138;51.326;-0.068;2023-03-26T04:53:56;98209.16;;;6.46;95.21
69842;BME280;57138;51.326;-0.068;2023-03-26T04:58:47;98198.34;;;6.47;96.09
69842;BME280;57138;51.326;-0.068;2023-03-26T05:01:14;98205.25;;;6.55;96.61
69842;BME280;57138;51.326;-0.068;2023-03-26T05:03:41;98195.44;;;6.56;95.95
69842;BME280;57138;51.326;-0.068;2023-03-26T05:06:09;98201.16;;;6.59;95.93
69842;BME280;57138;51.326;-0.068;2023-03-26T05:08:35;98201.16;;;6.59;95.53
69842;BME280;57138;51.326;-0.068;2023-03-26T05:11:00;98196.66;;;6.60;95.59
69842;BME280;57138;51.326;-0.068;2023-03-26T05:13:25;98204.03;;;6.58;95.26
69842;BME280;57138;51.326;-0.068;2023-03-26T05:15:51;98203.59;;;6.61;95.81
69842;BME280;57138;51.326;-0.068;2023-03-26T05:18:16;98202.38;;;6.57;95.30
69842;BME280;57138;51.326;-0.068;2023-03-26T05:20:42;98209.34;;;6.58;94.84
69842;BME280;57138;51.326;-0.068;2023-03-26T05:23:08;98198.72;;;6.58;95.17
69842;BME280;57138;51.326;-0.068;2023-03-26T05:25:33;98196.47;;;6.55;94.83
69842;BME280;57138;51.326;-0.068;2023-03-26T05:27:59;98196.69;;;6.53;95.22
69842;BME280;57138;51.326;-0.068;2023-03-26T05:30:25;98195.84;;;6.53;94.49
69842;BME280;57138;51.326;-0.068;2023-03-26T05:32:50;98193.03;;;6.47;95.54
69842;BME280;57138;51.326;-0.068;2023-03-26T05:35:16;98198.94;;;6.50;95.18
69842;BME280;57138;51.326;-0.068;2023-03-26T05:37:43;98202.63;;;6.48;95.78
69842;BME280;57138;51.326;-0.068;2023-03-26T05:40:10;98202.00;;;6.46;95.53
69842;BME280;57138;51.326;-0.068;2023-03-26T05:42:37;98206.72;;;6.44;95.35
69842;BME280;57138;51.326;-0.068;2023-03-26T05:45:05;98205.28;;;6.42;95.42
69842;BME280;57138;51.326;-0.068;2023-03-26T05:47:31;98199.19;;;6.41;95.70
69842;BME280;57138;51.326;-0.068;2023-03-26T05:49:56;98197.75;;;6.39;95.73
69842;BME280;57138;51.326;-0.068;2023-03-26T05:52:21;98198.38;;;6.41;95.74
69842;BME280;57138;51.326;-0.068;2023-03-26T05:54:47;98202.03;;;6.40;95.74
69842;BME280;57138;51.326;-0.068;2023-03-26T05:57:12;98210.22;;;6.38;95.28
69842;BME280;57138;51.326;-0.068;2023-03-26T05:59:38;98205.34;;;6.35;95.28
69842;BME280;57138;51.326;-0.068;2023-03-26T06:02:03;98206.56;;;6.33;95.54
69842;BME280;57138;51.326;-0.068;2023-03-26T06:04:28;98200.06;;;6.28;95.23
69842;BME280;57138;51.326;-0.068;2023-03-26T06:06:56;98200.44;;;6.32;95.97
69842;BME280;57138;51.326;-0.068;2023-03-26T06:09:21;98200.88;;;6.29;96.03
69842;BME280;57138;51.326;-0.068;2023-03-26T06:11:47;98200.47;;;6.25;96.41
69842;BME280;57138;51.326;-0.068;2023-03-26T06:14:12;98203.75;;;6.21;96.33
69842;BME280;57138;51.326;-0.068;2023-03-26T06:16:37;98219.88;;;6.26;96.17
69842;BME280;57138;51.326;-0.068;2023-03-26T06:19:03;98217.84;;;6.21;96.00
69842;BME280;57138;51.326;-0.068;2023-03-26T06:21:28;98217.03;;;6.21;96.37
69842;BME280;57138;51.326;-0.068;2023-03-26T06:23:54;98221.31;;;6.22;96.22
69842;BME280;57138;51.326;-0.068;2023-03-26T06:26:20;98210.72;;;6.15;96.80
69842;BME280;57138;51.326;-0.068;2023-03-26T06:28:46;98212.19;;;6.11;96.17
69842;BME280;57138;51.326;-0.068;2023-03-26T06:31:11;98220.94;;;6.11;95.79
69842;BME280;57138;51.326;-0.068;2023-03-26T06:33:37;98220.75;;;6.06;96.77
69842;BME280;57138;51.326;-0.068;2023-03-26T06:36:02;98204.25;;;5.98;96.51
69842;BME280;57138;51.326;-0.068;2023-03-26T06:38:28;98217.28;;;5.99;96.79
69842;BME280;57138;51.326;-0.068;2023-03-26T06:40:53;98227.69;;;6.01;96.83
69842;BME280;57138;51.326;-0.068;2023-03-26T06:43:19;98230.78;;;5.98;97.44
69842;BME280;57138;51.326;-0.068;2023-03-26T06:45:49;98225.63;;;5.96;96.50
69842;BME280;57138;51.326;-0.068;2023-03-26T06:48:14;98235.66;;;5.94;97.67
69842;BME280;57138;51.326;-0.068;2023-03-26T06:50:40;98245.03;;;5.97;97.01
69842;BME280;57138;51.326;-0.068;2023-03-26T06:53:05;98251.56;;;5.94;96.60
69842;BME280;57138;51.326;-0.068;2023-03-26T06:55:31;98238.50;;;5.86;97.41
69842;BME280;57138;51.326;-0.068;2023-03-26T06:57:56;98240.13;;;5.87;97.81
69842;BME280;57138;51.326;-0.068;2023-03-26T07:00:22;98243.81;;;5.86;97.98
69842;BME280;57138;51.326;-0.068;2023-03-26T07:02:47;98245.47;;;5.80;97.98
69842;BME280;57138;51.326;-0.068;2023-03-26T07:05:13;98255.66;;;5.83;97.59
69842;BME280;57138;51.326;-0.068;2023-03-26T07:07:39;98243.03;;;5.79;97.84
69842;BME280;57138;51.326;-0.068;2023-03-26T07:10:06;98262.19;;;5.81;98.07
69842;BME280;57138;51.326;-0.068;2023-03-26T07:12:32;98268.09;;;5.83;98.63
69842;BME280;57138;51.326;-0.068;2023-03-26T07:14:58;98264.66;;;5.75;98.65
69842;BME280;57138;51.326;-0.068;2023-03-26T07:17:25;98279.09;;;5.80;98.21
69842;BME280;57138;51.326;-0.068;2023-03-26T07:19:50;98274.25;;;5.76;98.92
69842;BME280;57138;51.326;-0.068;2023-03-26T07:22:22;98283.81;;;5.78;98.03
69842;BME280;57138;51.326;-0.068;2023-03-26T07:24:48;98286.25;;;5.72;98.22
69842;BME280;57138;51.326;-0.068;2023-03-26T07:30:13;98286.06;;;5.67;99.94
69842;BME280;57138;51.326;-0.068;2023-03-26T07:35:29;98309.94;;;5.67;98.42
69842;BME280;57138;51.326;-0.068;2023-03-26T07:38:20;98311.75;;;5.67;99.66
69842;BME280;57138;51.326;-0.068;2023-03-26T07:46:09;98323.78;;;5.69;99.48
69842;BME280;57138;51.326;-0.068;2023-03-26T07:48:41;98318.09;;;5.66;99.50
69842;BME280;57138;51.326;-0.068;2023-03-26T07:51:07;98328.50;;;5.67;98.95
69842;BME280;57138;51.326;-0.068;2023-03-26T07:53:33;98326.84;;;5.66;97.73
69842;BME280;57138;51.326;-0.068;2023-03-26T07:59:05;98337.66;;;5.65;98.95
69842;BME280;57138;51.326;-0.068;2023-03-26T08:01:49;98347.06;;;5.67;99.28
69842;BME280;57138;51.326;-0.068;2023-03-26T08:07:17;98347.47;;;5.71;98.83
69842;BME280;57138;51.326;-0.068;2023-03-26T08:15:30;98369.47;;;5.71;99.27
69842;BME280;57138;51.326;-0.068;2023-03-26T08:21:05;98375.19;;;5.68;99.31
69842;BME280;57138;51.326;-0.068;2023-03-26T08:26:39;98380.50;;;5.68;99.41
69842;BME280;57138;51.326;-0.068;2023-03-26T08:31:43;98384.97;;;5.74;99.11
69842;BME280;57138;51.326;-0.068;2023-03-26T08:34:11;98396.22;;;5.76;99.27
69842;BME280;57138;51.326;-0.068;2023-03-26T08:36:37;98404.19;;;5.76;98.43
69842;BME280;57138;51.326;-0.068;2023-03-26T08:39:03;98400.28;;;5.72;98.81
69842;BME280;57138;51.326;-0.068;2023-03-26T09:01:07;98442.13;;;5.77;99.11
69842;BME280;57138;51.326;-0.068;2023-03-26T09:29:02;98484.16;;;5.87;98.65
69842;BME280;57138;51.326;-0.068;2023-03-26T09:31:49;98490.06;;;5.89;98.13
69842;BME280;57138;51.326;-0.068;2023-03-26T09:40:15;98511.53;;;5.94;98.66
69842;BME280;57138;51.326;-0.068;2023-03-26T09:42:45;98507.84;;;5.95;99.07
69842;BME280;57138;51.326;-0.068;2023-03-26T09:56:18;98525.47;;;6.09;99.67
69842;BME280;57138;51.326;-0.068;2023-03-26T10:15:30;98558.16;;;6.37;99.85
69842;BME280;57138;51.326;-0.068;2023-03-26T10:21:53;98564.28;;;6.37;99.40
69842;BME280;57138;51.326;-0.068;2023-03-26T10:40:21;98612.72;;;6.46;98.81
69842;BME280;57138;51.326;-0.068;2023-03-26T10:48:54;98634.59;;;6.68;98.27
69842;BME280;57138;51.326;-0.068;2023-03-26T10:51:33;98633.78;;;6.74;99.82
69842;BME280;57138;51.326;-0.068;2023-03-26T10:54:47;98637.88;;;6.83;99.75
69842;BME280;57138;51.326;-0.068;2023-03-26T10:57:50;98640.34;;;6.92;99.98
69842;BME280;57138;51.326;-0.068;2023-03-26T11:00:22;98654.47;;;6.99;100.00
69842;BME280;57138;51.326;-0.068;2023-03-26T11:16:31;98677.56;;;7.05;98.91
69842;BME280;57138;51.326;-0.068;2023-03-26T11:19:33;98689.84;;;7.06;99.32
69842;BME280;57138;51.326;-0.068;2023-03-26T11:25:21;98697.81;;;7.26;100.00
69842;BME280;57138;51.326;-0.068;2023-03-26T11:28:03;98690.63;;;7.40;98.82
69842;BME280;57138;51.326;-0.068;2023-03-26T11:33:28;98709.44;;;7.59;98.97
69842;BME280;57138;51.326;-0.068;2023-03-26T11:36:01;98709.84;;;7.69;98.64
69842;BME280;57138;51.326;-0.068;2023-03-26T11:38:37;98717.00;;;7.75;98.78
69842;BME280;57138;51.326;-0.068;2023-03-26T11:41:31;98731.13;;;7.82;96.37
69842;BME280;57138;51.326;-0.068;2023-03-26T11:44:07;98730.31;;;7.75;96.22
69842;BME280;57138;51.326;-0.068;2023-03-26T11:46:42;98739.53;;;7.66;95.66
69842;BME280;57138;51.326;-0.068;2023-03-26T11:49:11;98742.00;;;7.61;94.95
69842;BME280;57138;51.326;-0.068;2023-03-26T11:51:39;98741.16;;;7.60;95.95
69842;BME280;57138;51.326;-0.068;2023-03-26T11:54:06;98749.97;;;7.61;96.31
69842;BME280;57138;51.326;-0.068;2023-03-26T11:59:09;98765.31;;;7.72;96.89
69842;BME280;57138;51.326;-0.068;2023-03-26T12:01:49;98765.09;;;7.80;96.08
69842;BME280;57138;51.326;-0.068;2023-03-26T12:04:24;98771.84;;;7.89;97.62
69842;BME280;57138;51.326;-0.068;2023-03-26T12:06:58;98777.34;;;8.08;97.10
69842;BME280;57138;51.326;-0.068;2023-03-26T12:09:29;98787.56;;;8.24;96.83
69842;BME280;57138;51.326;-0.068;2023-03-26T12:11:59;98794.47;;;8.39;97.50
69842;BME280;57138;51.326;-0.068;2023-03-26T12:14:28;98795.50;;;8.51;96.04
69842;BME280;57138;51.326;-0.068;2023-03-26T12:17:06;98799.56;;;8.60;94.96
69842;BME280;57138;51.326;-0.068;2023-03-26T12:19:50;98801.59;;;8.58;92.95
69842;BME280;57138;51.326;-0.068;2023-03-26T12:22:37;98812.50;;;8.50;90.75
69842;BME280;57138;51.326;-0.068;2023-03-26T12:28:08;98819.69;;;8.30;91.60
69842;BME280;57138;51.326;-0.068;2023-03-26T12:30:33;98828.72;;;8.22;93.36
69842;BME280;57138;51.326;-0.068;2023-03-26T12:33:01;98831.81;;;8.12;91.41
69842;BME280;57138;51.326;-0.068;2023-03-26T12:35:30;98840.84;;;8.04;91.27
69842;BME280;57138;51.326;-0.068;2023-03-26T12:38:14;98851.06;;;7.87;90.59
69842;BME280;57138;51.326;-0.068;2023-03-26T12:40:41;98860.06;;;7.73;91.96
69842;BME280;57138;51.326;-0.068;2023-03-26T12:43:47;98878.06;;;7.58;92.97
69842;BME280;57138;51.326;-0.068;2023-03-26T12:46:33;98873.94;;;7.48;94.42
69842;BME280;57138;51.326;-0.068;2023-03-26T12:49:09;98879.66;;;7.45;94.06
69842;BME280;57138;51.326;-0.068;2023-03-26T12:51:47;98886.41;;;7.41;94.93
69842;BME280;57138;51.326;-0.068;2023-03-26T12:57:22;98893.38;;;7.55;96.58
69842;BME280;57138;51.326;-0.068;2023-03-26T13:00:14;98896.69;;;7.58;94.94
69842;BME280;57138;51.326;-0.068;2023-03-26T13:06:21;98910.13;;;7.43;95.86
69842;BME280;57138;51.326;-0.068;2023-03-26T13:09:07;98933.84;;;7.37;96.09
69842;BME280;57138;51.326;-0.068;2023-03-26T13:14:52;98931.78;;;7.33;96.55
69842;BME280;57138;51.326;-0.068;2023-03-26T13:20:32;98936.25;;;7.26;96.65
69842;BME280;57138;51.326;-0.068;2023-03-26T13:23:19;98939.50;;;7.14;96.14
69842;BME280;57138;51.326;-0.068;2023-03-26T13:25:56;98956.03;;;7.16;95.84
69842;BME280;57138;51.326;-0.068;2023-03-26T13:31:21;98975.41;;;7.04;96.26
69842;BME280;57138;51.326;-0.068;2023-03-26T13:41:53;99004.63;;;6.97;97.13
69842;BME280;57138;51.326;-0.068;2023-03-26T13:44:52;99016.63;;;6.93;96.34
69842;BME280;57138;51.326;-0.068;2023-03-26T13:47:25;99017.84;;;6.90;95.54
69842;BME280;57138;51.326;-0.068;2023-03-26T13:49:57;99025.00;;;6.90;96.32
69842;BME280;57138;51.326;-0.068;2023-03-26T13:57:50;99046.19;;;6.76;94.37
69842;BME280;57138;51.326;-0.068;2023-03-26T14:00:24;99054.72;;;6.72;94.74
69842;BME280;57138;51.326;-0.068;2023-03-26T14:02:56;99050.97;;;6.66;93.37
69842;BME280;57138;51.326;-0.068;2023-03-26T14:05:30;99070.47;;;6.73;93.67
69842;BME280;57138;51.326;-0.068;2023-03-26T14:10:51;99076.00;;;6.78;93.14
69842;BME280;57138;51.326;-0.068;2023-03-26T14:13:44;99085.63;;;6.79;92.70
69842;BME280;57138;51.326;-0.068;2023-03-26T14:16:19;99083.38;;;6.76;91.32
69842;BME280;57138;51.326;-0.068;2023-03-26T14:18:53;99095.22;;;6.80;92.24
69842;BME280;57138;51.326;-0.068;2023-03-26T14:21:43;99100.13;;;6.77;92.51
69842;BME280;57138;51.326;-0.068;2023-03-26T14:27:00;99102.19;;;6.81;92.91
69842;BME280;57138;51.326;-0.068;2023-03-26T14:32:18;99101.81;;;6.84;93.51
69842;BME280;57138;51.326;-0.068;2023-03-26T14:48:45;99146.38;;;6.82;91.99
69842;BME280;57138;51.326;-0.068;2023-03-26T14:54:04;99158.63;;;6.83;93.11
69842;BME280;57138;51.326;-0.068;2023-03-26T14:56:43;99169.88;;;6.86;93.41
69842;BME280;57138;51.326;-0.068;2023-03-26T15:18:35;99206.31;;;6.70;89.54
69842;BME280;57138;51.326;-0.068;2023-03-26T15:27:23;99225.47;;;6.65;89.14
69842;BME280;57138;51.326;-0.068;2023-03-26T15:30:07;99229.56;;;6.68;90.93
69842;BME280;57138;51.326;-0.068;2023-03-26T15:57:25;99291.41;;;6.77;87.21
69842;BME280;57138;51.326;-0.068;2023-03-26T16:08:17;99318.34;;;6.74;87.53
69842;BME280;57138;51.326;-0.068;2023-03-26T16:13:33;99328.53;;;6.70;84.84
69842;BME280;57138;51.326;-0.068;2023-03-26T16:18:48;99350.88;;;6.61;83.89
69842;BME280;57138;51.326;-0.068;2023-03-26T16:21:33;99350.59;;;6.56;83.74
69842;BME280;57138;51.326;-0.068;2023-03-26T16:26:34;99372.84;;;6.55;83.97
69842;BME280;57138;51.326;-0.068;2023-03-26T16:42:50;99389.31;;;6.35;81.33
69842;BME280;57138;51.326;-0.068;2023-03-26T16:45:26;99407.53;;;6.38;80.31
69842;BME280;57138;51.326;-0.068;2023-03-26T16:53:36;99422.47;;;6.39;81.84
69842;BME280;57138;51.326;-0.068;2023-03-26T16:59:38;99434.28;;;6.37;78.30
69842;BME280;57138;51.326;-0.068;2023-03-26T17:02:28;99444.44;;;6.33;76.99
69842;BME280;57138;51.326;-0.068;2023-03-26T17:05:23;99460.09;;;6.28;77.30
69842;BME280;57138;51.326;-0.068;2023-03-26T17:08:00;99468.78;;;6.22;78.61
69842;BME280;57138;51.326;-0.068;2023-03-26T17:13:07;99482.56;;;6.17;75.97
69842;BME280;57138;51.326;-0.068;2023-03-26T17:16:24;99483.75;;;6.15;77.46
69842;BME280;57138;51.326;-0.068;2023-03-26T17:21:50;99508.97;;;6.10;79.89
69842;BME280;57138;51.326;-0.068;2023-03-26T17:24:34;99518.94;;;6.08;77.78
69842;BME280;57138;51.326;-0.068;2023-03-26T17:32:58;99539.56;;;5.98;75.95
69842;BME280;57138;51.326;-0.068;2023-03-26T17:40:56;99555.16;;;5.93;74.41
69842;BME280;57138;51.326;-0.068;2023-03-26T17:43:38;99558.81;;;5.92;76.70
69842;BME280;57138;51.326;-0.068;2023-03-26T17:46:19;99556.50;;;5.89;75.40
69842;BME280;57138;51.326;-0.068;2023-03-26T17:48:52;99559.16;;;5.89;76.23
69842;BME280;57138;51.326;-0.068;2023-03-26T17:51:33;99562.16;;;5.86;76.19
69842;BME280;57138;51.326;-0.068;2023-03-26T17:54:06;99577.09;;;5.87;78.19
69842;BME280;57138;51.326;-0.068;2023-03-26T17:56:33;99576.63;;;5.83;77.41
69842;BME280;57138;51.326;-0.068;2023-03-26T17:59:02;99590.06;;;5.82;76.32
69842;BME280;57138;51.326;-0.068;2023-03-26T18:01:38;99592.53;;;5.83;77.55
69842;BME280;57138;51.326;-0.068;2023-03-26T18:04:10;99601.50;;;5.82;77.58
69842;BME280;57138;51.326;-0.068;2023-03-26T18:06:55;99604.31;;;5.81;77.32
69842;BME280;57138;51.326;-0.068;2023-03-26T18:15:48;99629.19;;;5.80;76.69
69842;BME280;57138;51.326;-0.068;2023-03-26T18:18:19;99630.19;;;5.79;76.12
69842;BME280;57138;51.326;-0.068;2023-03-26T18:20:47;99640.16;;;5.76;73.62
69842;BME280;57138;51.326;-0.068;2023-03-26T18:23:43;99651.75;;;5.75;75.29
69842;BME280;57138;51.326;-0.068;2023-03-26T18:26:14;99649.13;;;5.75;76.69
69842;BME280;57138;51.326;-0.068;2023-03-26T18:28:49;99649.78;;;5.69;77.15
69842;BME280;57138;51.326;-0.068;2023-03-26T18:33:46;99670.66;;;5.72;77.53
69842;BME280;57138;51.326;-0.068;2023-03-26T18:36:14;99674.31;;;5.71;76.94
69842;BME280;57138;51.326;-0.068;2023-03-26T18:38:40;99672.00;;;5.68;76.74
69842;BME280;57138;51.326;-0.068;2023-03-26T18:41:14;99685.25;;;5.68;73.17
69842;BME280;57138;51.326;-0.068;2023-03-26T18:43:41;99678.66;;;5.64;76.79
69842;BME280;57138;51.326;-0.068;2023-03-26T18:46:08;99697.53;;;5.69;77.48
69842;BME280;57138;51.326;-0.068;2023-03-26T18:48:35;99704.84;;;5.67;76.64
69842;BME280;57138;51.326;-0.068;2023-03-26T18:51:03;99703.53;;;5.63;75.23
69842;BME280;57138;51.326;-0.068;2023-03-26T18:53:34;99714.47;;;5.60;77.66
69842;BME280;57138;51.326;-0.068;2023-03-26T18:56:17;99714.47;;;5.60;76.39
69842;BME280;57138;51.326;-0.068;2023-03-26T18:58:49;99716.47;;;5.58;77.43
69842;BME280;57138;51.326;-0.068;2023-03-26T19:01:15;99717.47;;;5.49;77.29
69842;BME280;57138;51.326;-0.068;2023-03-26T19:03:42;99732.72;;;5.55;77.56
69842;BME280;57138;51.326;-0.068;2023-03-26T19:06:12;99733.88;;;5.52;77.41
69842;BME280;57138;51.326;-0.068;2023-03-26T19:08:41;99738.34;;;5.52;76.95
69842;BME280;57138;51.326;-0.068;2023-03-26T19:11:08;99740.50;;;5.48;77.59